Time;durP1;ratioP1;P1;durP2;ratioP2;P2;SDS_P1;SDS_P2;PMS_P1;PMS_P2;Temp;Humidity;BMP_temperature;BMP_pressure;BME280_temperature;BME280_humidity;BME280_pressure;Samples;Min_cycle;Max_cycle;Signal;HPM_P1;HPM_P2
2021/09/15 00:01:05;;;;;;;8.57;6.55;;;;;;;16.91;51.44;101177.28;5021846;28;20628;-68
2021/09/15 00:03:34;;;;;;;9.60;6.10;;;;;;;16.94;51.02;101171.81;5023392;28;20371;-68
2021/09/15 00:06:01;;;;;;;8.13;6.47;;;;;;;17.01;51.28;101170.50;5024659;28;20471;-68
2021/09/15 00:08:26;;;;;;;6.85;6.13;;;;;;;16.95;51.28;101174.34;5022301;28;20041;-68
2021/09/15 00:10:52;;;;;;;13.15;6.45;;;;;;;16.88;51.52;101164.28;5021156;28;20486;-68
2021/09/15 00:13:17;;;;;;;10.02;5.50;;;;;;;16.92;51.13;101152.59;5024225;28;20037;-68
2021/09/15 00:15:42;;;;;;;8.75;6.50;;;;;;;16.95;51.30;101153.22;5022630;28;20051;-68
2021/09/15 00:18:08;;;;;;;6.93;6.13;;;;;;;16.91;51.18;101150.88;5022246;28;20025;-68
2021/09/15 00:20:34;;;;;;;8.60;6.97;;;;;;;16.82;51.43;101144.38;5021526;28;20037;-68
2021/09/15 00:22:59;;;;;;;8.73;5.65;;;;;;;16.75;51.72;101141.25;5022149;28;20042;-67
2021/09/15 00:25:24;;;;;;;7.63;6.55;;;;;;;16.75;51.70;101138.63;5023410;28;20033;-68
2021/09/15 00:27:50;;;;;;;8.70;6.75;;;;;;;16.68;51.58;101133.81;5023244;28;20096;-68
2021/09/15 00:30:15;;;;;;;8.88;7.00;;;;;;;16.65;51.62;101126.94;5021617;28;20033;-67
2021/09/15 00:32:41;;;;;;;9.70;5.85;;;;;;;16.67;51.83;101127.69;5024366;28;20391;-68
2021/09/15 00:35:09;;;;;;;6.88;6.13;;;;;;;16.79;51.23;101129.56;5021661;28;20764;-67
2021/09/15 00:37:34;;;;;;;9.68;7.22;;;;;;;16.67;51.68;101121.56;5023971;28;20057;-67
2021/09/15 00:40:00;;;;;;;7.65;6.13;;;;;;;16.58;52.06;101122.97;5020448;28;20047;-68
2021/09/15 00:42:25;;;;;;;7.20;6.18;;;;;;;16.62;51.75;101127.09;5021739;28;20086;-67
2021/09/15 00:44:51;;;;;;;9.63;6.50;;;;;;;16.69;51.68;101125.81;5022824;28;20064;-67
2021/09/15 00:47:16;;;;;;;9.57;6.60;;;;;;;16.59;51.97;101109.66;5022223;28;20067;-67
2021/09/15 00:49:43;;;;;;;8.77;6.75;;;;;;;16.57;51.79;101108.06;5027005;28;20575;-67
2021/09/15 00:52:09;;;;;;;9.60;6.97;;;;;;;16.74;51.50;101107.88;5020470;28;20120;-67
2021/09/15 00:54:34;;;;;;;7.65;6.78;;;;;;;16.72;51.54;101112.41;5038968;28;20060;-68
2021/09/15 00:57:00;;;;;;;9.82;6.80;;;;;;;16.68;51.69;101100.34;5024022;28;20057;-68
2021/09/15 00:59:26;;;;;;;7.75;6.88;;;;;;;16.60;51.71;101103.47;5023814;28;20150;-68
2021/09/15 01:01:53;;;;;;;8.40;6.32;;;;;;;16.61;51.92;101096.38;5023345;28;20060;-68
2021/09/15 01:04:18;;;;;;;8.88;6.55;;;;;;;16.64;51.84;101101.47;5023470;28;20033;-68
2021/09/15 01:06:49;;;;;;;11.65;6.80;;;;;;;16.60;51.88;101098.19;5024344;28;20491;-68
2021/09/15 01:09:16;;;;;;;12.25;7.18;;;;;;;16.75;51.70;101109.59;5037085;28;20041;-68
2021/09/15 01:11:43;;;;;;;11.57;7.07;;;;;;;16.77;51.65;101106.88;5020602;28;20034;-68
2021/09/15 01:14:25;;;;;;;11.05;7.88;;;;;;;16.79;51.16;101100.53;5037610;28;20033;-68
2021/09/15 01:17:09;;;;;;;9.40;6.80;;;;;;;16.71;51.53;101100.16;5021990;28;20052;-68
2021/09/15 01:19:54;;;;;;;11.50;7.45;;;;;;;16.69;51.61;101090.63;5021977;28;20163;-68
2021/09/15 01:22:37;;;;;;;8.75;7.32;;;;;;;16.70;51.68;101090.53;5034621;28;20041;-68
2021/09/15 01:25:24;;;;;;;8.95;6.72;;;;;;;16.72;51.71;101091.28;5040238;28;20120;-68
2021/09/15 01:28:08;;;;;;;10.52;7.18;;;;;;;16.66;51.65;101086.38;5024900;28;20041;-68
2021/09/15 01:30:44;;;;;;;9.27;7.63;;;;;;;16.67;51.56;101089.91;5026541;28;20119;-68
2021/09/15 01:33:16;;;;;;;8.95;6.57;;;;;;;16.67;51.63;101090.72;5026150;28;20570;-68
2021/09/15 01:35:43;;;;;;;8.93;6.90;;;;;;;16.81;51.25;101088.09;5028967;28;20037;-68
2021/09/15 01:38:09;;;;;;;7.43;6.72;;;;;;;16.57;51.93;101086.97;5027161;28;20033;-68
2021/09/15 01:40:37;;;;;;;19.30;7.93;;;;;;;16.67;51.74;101082.81;5025392;28;20033;-68
2021/09/15 01:43:03;;;;;;;8.55;6.93;;;;;;;16.77;51.57;101083.94;5009562;28;20132;-68
2021/09/15 01:45:29;;;;;;;9.02;7.40;;;;;;;16.60;51.94;101076.25;5025051;28;20131;-69
2021/09/15 01:47:54;;;;;;;8.35;6.72;;;;;;;16.79;51.36;101073.31;5025702;28;20907;-68
2021/09/15 01:50:23;;;;;;;7.65;6.32;;;;;;;16.61;51.74;101073.47;5027021;28;20046;-68
2021/09/15 01:52:49;;;;;;;13.70;7.18;;;;;;;16.71;51.59;101071.13;5025914;28;20132;-68
2021/09/15 01:55:25;;;;;;;9.77;6.88;;;;;;;16.68;51.51;101068.66;5042508;28;20041;-68
2021/09/15 01:58:01;;;;;;;11.70;7.20;;;;;;;16.63;51.72;101057.56;5024918;28;20114;-69
2021/09/15 02:00:53;;;;;;;9.68;6.53;;;;;;;16.63;51.85;101057.56;5022140;28;20045;-68
2021/09/15 02:03:37;;;;;;;15.68;7.55;;;;;;;16.70;51.42;101064.13;5025935;28;20132;-68
2021/09/15 02:06:21;;;;;;;14.65;7.88;;;;;;;16.69;51.64;101062.47;5025001;28;20029;-68
2021/09/15 02:08:51;;;;;;;11.13;7.20;;;;;;;16.63;51.65;101057.56;5042441;28;20032;-68
2021/09/15 02:11:29;;;;;;;9.52;7.15;;;;;;;16.65;51.71;101055.69;5024469;28;20069;-69
2021/09/15 02:13:54;;;;;;;8.38;7.07;;;;;;;16.56;51.72;101053.63;5022462;28;20453;-68
2021/09/15 02:16:21;;;;;;;10.45;6.80;;;;;;;16.59;51.86;101048.97;5025994;28;20033;-68
2021/09/15 02:18:51;;;;;;;9.52;7.30;;;;;;;16.70;51.33;101053.59;5025771;28;20026;-68
2021/09/15 02:21:34;;;;;;;7.57;6.88;;;;;;;16.71;51.26;101050.03;5018309;28;20041;-68
2021/09/15 02:24:18;;;;;;;11.90;7.82;;;;;;;16.57;52.02;101057.94;5025433;28;20612;-68
2021/09/15 02:27:13;;;;;;;9.43;7.07;;;;;;;16.51;52.35;101063.59;5017985;28;20062;-68
2021/09/15 02:29:39;;;;;;;9.52;8.15;;;;;;;16.62;52.04;101050.56;5024319;28;20035;-68
2021/09/15 02:32:30;;;;;;;10.55;7.90;;;;;;;16.55;52.06;101062.47;5023088;28;20037;-68
2021/09/15 02:35:15;;;;;;;10.02;7.38;;;;;;;16.39;53.01;101063.41;5024219;28;20127;-68
2021/09/15 02:37:53;;;;;;;10.20;7.78;;;;;;;16.63;51.73;101052.28;5038290;28;20030;-68
2021/09/15 02:40:29;;;;;;;10.90;8.18;;;;;;;16.60;52.10;101050.69;5041930;28;20091;-68
2021/09/15 02:43:00;;;;;;;9.43;7.68;;;;;;;16.50;52.24;101056.63;5022252;28;20037;-68
2021/09/15 02:45:38;;;;;;;8.38;7.00;;;;;;;16.51;51.99;101053.91;5024823;28;20086;-68
2021/09/15 02:48:19;;;;;;;10.02;7.53;;;;;;;16.44;52.27;101047.28;5038826;28;20071;-68
2021/09/15 02:51:06;;;;;;;9.35;7.57;;;;;;;16.55;52.06;101038.72;5042123;28;20069;-69
2021/09/15 02:53:51;;;;;;;11.13;8.32;;;;;;;16.49;52.40;101036.44;5028329;28;20033;-68
2021/09/15 02:56:31;;;;;;;9.48;8.43;;;;;;;16.43;52.46;101035.06;5024688;28;20033;-68
2021/09/15 02:59:13;;;;;;;11.95;7.93;;;;;;;16.51;52.00;101024.00;5023578;28;20037;-68
2021/09/15 03:02:06;;;;;;;9.32;7.35;;;;;;;16.34;52.60;101025.94;5024565;28;20220;-68
2021/09/15 03:04:49;;;;;;;11.57;8.30;;;;;;;16.33;52.53;101013.69;5020112;28;20029;-69
2021/09/15 03:07:29;;;;;;;12.88;8.68;;;;;;;16.33;52.68;101018.09;5015369;28;20037;-67
2021/09/15 03:09:55;;;;;;;9.55;7.93;;;;;;;16.34;52.76;101010.09;5022917;28;20048;-67
2021/09/15 03:12:20;;;;;;;9.60;8.23;;;;;;;16.32;52.43;101009.34;5024416;28;20502;-67
2021/09/15 03:14:46;;;;;;;9.85;8.20;;;;;;;16.39;52.44;101007.19;5024743;28;20041;-69
2021/09/15 03:17:12;;;;;;;9.93;8.15;;;;;;;16.34;52.41;101015.38;5023897;28;20067;-67
2021/09/15 03:19:38;;;;;;;11.57;8.35;;;;;;;16.30;52.57;101019.13;5024026;28;20063;-69
2021/09/15 03:22:05;;;;;;;13.15;9.45;;;;;;;16.18;53.31;101004.09;5024103;28;20038;-67
2021/09/15 03:24:31;;;;;;;11.80;9.13;;;;;;;16.19;53.16;101006.63;5040747;28;20029;-68
2021/09/15 03:26:56;;;;;;;11.50;9.40;;;;;;;16.19;53.21;101001.34;5009342;28;20037;-68
2021/09/15 03:29:22;;;;;;;10.48;9.23;;;;;;;16.34;52.89;100999.56;5022535;28;20677;-67
2021/09/15 03:31:47;;;;;;;12.23;9.05;;;;;;;16.36;52.64;100995.03;5022471;28;20486;-67
2021/09/15 03:34:13;;;;;;;13.50;10.02;;;;;;;16.23;52.89;100986.19;5022318;28;20037;-67
2021/09/15 03:36:39;;;;;;;11.70;8.88;;;;;;;16.35;52.81;100990.72;5041945;28;20129;-68
2021/09/15 03:39:05;;;;;;;11.98;10.75;;;;;;;16.22;53.15;100987.16;5021911;28;20036;-68
2021/09/15 03:41:31;;;;;;;13.27;10.75;;;;;;;16.17;53.55;100983.94;5022486;28;20845;-68
2021/09/15 03:43:58;;;;;;;12.10;10.07;;;;;;;16.23;53.39;100986.19;5023983;28;20044;-68
2021/09/15 03:46:23;;;;;;;11.15;9.93;;;;;;;16.35;52.97;100974.88;5016062;28;20110;-67
2021/09/15 03:48:49;;;;;;;14.60;11.00;;;;;;;16.40;52.82;100978.06;5023269;28;20033;-67
2021/09/15 03:51:15;;;;;;;15.82;11.23;;;;;;;16.30;53.03;100976.94;5015220;28;20444;-69
2021/09/15 03:53:40;;;;;;;16.15;10.48;;;;;;;16.48;52.60;100969.66;5022546;28;20029;-67
2021/09/15 03:56:06;;;;;;;12.60;10.55;;;;;;;16.34;53.07;100978.44;5021791;28;20037;-67
2021/09/15 03:58:33;;;;;;;12.88;10.45;;;;;;;16.36;52.64;100971.28;5041041;28;20033;-68
2021/09/15 04:01:00;;;;;;;12.02;9.80;;;;;;;16.27;52.96;100971.03;5021621;28;20033;-68
2021/09/15 04:03:25;;;;;;;13.68;10.50;;;;;;;16.29;53.15;100967.34;5024875;28;20068;-68
2021/09/15 04:05:50;;;;;;;17.92;12.15;;;;;;;16.25;53.17;100965.00;5038574;28;20029;-68
2021/09/15 04:08:18;;;;;;;18.40;12.45;;;;;;;16.20;53.34;100960.03;5038940;28;20048;-68
2021/09/15 04:10:44;;;;;;;18.77;11.43;;;;;;;16.13;53.90;100963.97;5022642;28;20029;-68
2021/09/15 04:13:10;;;;;;;15.68;10.68;;;;;;;16.20;53.57;100960.03;5012474;28;20174;-68
2021/09/15 04:15:36;;;;;;;14.90;11.23;;;;;;;16.20;53.24;100971.41;5023929;28;20034;-68
2021/09/15 04:18:02;;;;;;;14.90;11.68;;;;;;;16.05;53.79;100961.81;5021686;28;20403;-68
2021/09/15 04:20:28;;;;;;;19.88;12.30;;;;;;;16.11;53.69;100964.06;5039908;28;20022;-68
2021/09/15 04:22:54;;;;;;;20.13;13.07;;;;;;;16.11;53.69;100969.34;5023828;28;20029;-68
2021/09/15 04:33:35;;;;;;;17.95;12.73;;;;;;;16.08;53.99;100966.88;5037980;28;20545;-69
2021/09/15 04:36:01;;;;;;;14.48;11.52;;;;;;;16.14;53.67;100976.22;5023339;28;20041;-69
2021/09/15 04:38:27;;;;;;;14.98;12.05;;;;;;;16.06;54.10;100957.38;5023646;28;20060;-69
2021/09/15 04:40:52;;;;;;;16.98;13.55;;;;;;;15.99;54.32;100965.66;5021301;28;20049;-68
2021/09/15 04:43:18;;;;;;;18.85;13.60;;;;;;;16.03;54.06;100953.16;5021026;28;20037;-68
2021/09/15 04:45:43;;;;;;;19.80;12.93;;;;;;;16.03;53.90;100947.88;5017514;28;20128;-68
2021/09/15 04:48:10;;;;;;;17.65;14.00;;;;;;;15.85;54.48;100951.63;5036261;28;20087;-68
2021/09/15 04:50:37;;;;;;;21.25;13.57;;;;;;;15.83;54.59;100953.50;5006775;28;20709;-69
2021/09/15 04:53:03;;;;;;;24.50;13.75;;;;;;;15.82;54.40;100951.78;5020898;28;20038;-69
2021/09/15 04:55:32;;;;;;;18.35;14.07;;;;;;;15.79;54.40;100951.06;5021627;28;20187;-69
2021/09/15 04:57:58;;;;;;;18.42;14.43;;;;;;;15.57;55.35;100954.13;5021279;28;20028;-69
2021/09/15 05:00:24;;;;;;;19.98;13.93;;;;;;;15.68;55.02;100948.19;5019594;28;20044;-68
2021/09/15 05:02:57;;;;;;;20.38;13.77;;;;;;;15.65;54.94;100956.31;5039265;28;20777;-70
2021/09/15 05:05:31;;;;;;;25.55;15.15;;;;;;;15.49;55.58;100953.75;5017414;28;20571;-69
2021/09/15 05:07:57;;;;;;;21.60;15.95;;;;;;;15.62;55.29;100953.00;5020624;28;20060;-69
2021/09/15 05:10:25;;;;;;;20.42;14.43;;;;;;;15.64;55.21;100952.00;5020504;28;20495;-68
2021/09/15 05:12:54;;;;;;;20.40;14.80;;;;;;;15.75;54.91;100961.84;5021518;28;20110;-68
2021/09/15 05:15:21;;;;;;;22.08;14.90;;;;;;;15.71;54.86;100963.00;5004590;28;20044;-68
2021/09/15 05:17:47;;;;;;;20.73;15.07;;;;;;;15.68;55.09;100958.75;5023002;28;20038;-69
2021/09/15 05:20:17;;;;;;;21.98;13.85;;;;;;;15.74;55.09;100962.81;5000476;28;20191;-68
2021/09/15 05:22:50;;;;;;;21.70;15.50;;;;;;;15.83;54.63;100964.88;5022138;28;20784;-68
2021/09/15 05:25:17;;;;;;;21.45;15.60;;;;;;;15.83;54.58;100962.25;5020373;28;20045;-69
2021/09/15 05:27:43;;;;;;;23.73;15.50;;;;;;;15.82;54.70;100957.94;5001287;28;20046;-69
2021/09/15 05:30:11;;;;;;;22.05;14.80;;;;;;;15.81;54.58;100958.84;5021287;28;20910;-70
2021/09/15 05:32:40;;;;;;;21.52;14.70;;;;;;;15.72;54.93;100959.41;5020975;28;20056;-70
2021/09/15 05:35:09;;;;;;;24.95;16.10;;;;;;;15.50;55.45;100959.84;5016730;28;20042;-69
2021/09/15 05:37:35;;;;;;;22.67;15.32;;;;;;;15.67;55.33;100961.50;5015916;28;20504;-68
2021/09/15 05:40:03;;;;;;;23.23;15.45;;;;;;;15.73;55.00;100961.13;5021334;28;20152;-69
2021/09/15 05:42:29;;;;;;;24.38;15.52;;;;;;;15.59;55.26;100960.16;5011121;28;20047;-68
2021/09/15 05:44:58;;;;;;;20.73;14.68;;;;;;;15.67;54.79;100957.06;5017107;28;20029;-70
2021/09/15 05:47:24;;;;;;;20.38;15.30;;;;;;;15.79;54.78;100961.59;5020017;28;20442;-68
2021/09/15 05:49:50;;;;;;;23.27;15.20;;;;;;;15.91;54.57;100954.72;5019747;28;20101;-68
2021/09/15 05:52:18;;;;;;;17.48;13.75;;;;;;;16.07;54.33;100959.94;5035076;28;20888;-67
2021/09/15 05:54:44;;;;;;;22.75;15.13;;;;;;;16.25;53.91;100968.47;5019420;28;20056;-69
2021/09/15 05:57:09;;;;;;;24.33;16.00;;;;;;;16.28;53.69;100963.00;5020124;28;20876;-68
2021/09/15 05:59:35;;;;;;;18.30;14.38;;;;;;;16.49;53.53;100962.59;5021063;28;20382;-68
2021/09/15 06:02:01;;;;;;;19.25;14.35;;;;;;;16.63;53.45;100958.13;5014090;28;20087;-70
2021/09/15 06:04:27;;;;;;;21.23;14.55;;;;;;;16.79;53.09;100959.81;5017767;28;20048;-69
2021/09/15 06:06:57;;;;;;;22.65;14.90;;;;;;;17.02;53.02;100960.94;5021609;28;20037;-70
2021/09/15 06:09:23;;;;;;;19.55;14.00;;;;;;;17.44;52.31;100962.50;5021114;28;20052;-69
2021/09/15 06:11:50;;;;;;;20.67;15.48;;;;;;;17.82;50.49;100963.50;5021584;28;20033;-69
2021/09/15 06:14:16;;;;;;;20.30;14.18;;;;;;;17.76;50.01;100966.56;5041144;28;20032;-70
2021/09/15 06:16:42;;;;;;;18.13;13.93;;;;;;;17.54;50.39;100968.06;5026697;28;20042;-69
2021/09/15 06:19:08;;;;;;;19.92;14.70;;;;;;;17.37;50.94;100965.66;5024189;28;20029;-68
2021/09/15 06:21:54;;;;;;;19.05;15.20;;;;;;;17.23;51.17;100961.31;5024744;28;20737;-68
2021/09/15 06:24:54;;;;;;;21.25;15.02;;;;;;;17.15;51.44;100964.44;4998279;28;20160;-68
2021/09/15 06:27:24;;;;;;;17.42;12.93;;;;;;;17.01;52.32;100964.53;5024810;28;20083;-69
2021/09/15 06:29:50;;;;;;;18.27;14.45;;;;;;;17.02;52.11;100968.84;5021922;28;20033;-67
2021/09/15 06:32:20;;;;;;;17.33;13.60;;;;;;;17.05;52.34;100957.28;5024393;28;20067;-69
2021/09/15 06:34:45;;;;;;;18.45;14.45;;;;;;;17.14;52.35;100962.78;5041001;28;20091;-69
2021/09/15 06:37:14;;;;;;;18.73;15.07;;;;;;;17.31;52.01;100966.06;5022383;28;20785;-69
2021/09/15 06:39:40;;;;;;;23.25;14.90;;;;;;;17.29;51.83;100962.69;5024207;28;20356;-68
2021/09/15 06:42:06;;;;;;;20.40;15.38;;;;;;;17.13;52.06;100971.63;5023772;28;20118;-69
2021/09/15 06:44:31;;;;;;;19.75;14.57;;;;;;;17.13;52.06;100970.78;5040001;28;20065;-70
2021/09/15 06:46:56;;;;;;;21.13;14.52;;;;;;;17.09;52.57;100969.28;5023174;28;20063;-69
2021/09/15 06:49:22;;;;;;;21.10;15.85;;;;;;;16.92;52.93;100973.06;5008286;28;20941;-68
2021/09/15 06:51:48;;;;;;;20.63;15.73;;;;;;;17.09;52.91;100975.44;5021956;28;20567;-69
2021/09/15 06:54:14;;;;;;;21.42;15.55;;;;;;;17.17;52.58;100978.41;5022737;28;20033;-70
2021/09/15 06:56:40;;;;;;;23.33;15.43;;;;;;;17.24;52.57;100974.41;5007833;28;20069;-68
2021/09/15 06:59:06;;;;;;;20.20;15.18;;;;;;;17.23;52.58;100988.56;5021285;28;21549;-68
2021/09/15 07:01:31;;;;;;;20.52;14.77;;;;;;;17.20;52.50;100985.28;5018126;28;20426;-69
2021/09/15 07:03:57;;;;;;;20.83;15.75;;;;;;;17.27;52.98;100983.06;5040026;28;20026;-67
2021/09/15 07:06:23;;;;;;;19.85;15.00;;;;;;;17.32;52.42;100986.28;5024325;28;20045;-69
2021/09/15 07:08:54;;;;;;;21.15;16.35;;;;;;;17.41;52.55;100985.66;5022691;28;20094;-68
2021/09/15 07:11:21;;;;;;;19.50;13.52;;;;;;;17.53;52.65;100984.84;5023348;28;20049;-70
2021/09/15 07:13:46;;;;;;;19.85;15.68;;;;;;;17.55;52.42;100993.50;5023629;28;20175;-70
2021/09/15 07:16:12;;;;;;;21.98;16.73;;;;;;;17.60;52.20;100991.44;5018925;28;20068;-68
2021/09/15 07:18:37;;;;;;;21.30;14.88;;;;;;;17.76;52.43;100995.63;5037990;28;20029;-70
2021/09/15 07:21:03;;;;;;;20.83;15.55;;;;;;;17.76;51.95;100988.56;5038498;28;20051;-68
2021/09/15 07:23:28;;;;;;;21.45;15.02;;;;;;;17.75;52.06;100986.88;5017715;28;20040;-69
2021/09/15 07:25:54;;;;;;;21.00;16.02;;;;;;;17.78;52.17;100988.44;5019812;28;20555;-69
2021/09/15 07:28:19;;;;;;;25.05;15.50;;;;;;;17.78;52.77;100986.69;5020259;28;20072;-69
2021/09/15 07:30:45;;;;;;;18.92;15.50;;;;;;;17.99;51.95;100992.25;5037214;28;20738;-69
2021/09/15 07:33:10;;;;;;;21.63;16.63;;;;;;;18.13;51.88;100978.06;5018038;28;20045;-69
2021/09/15 07:35:36;;;;;;;21.75;15.27;;;;;;;18.18;51.13;100997.09;5018504;28;20040;-67
2021/09/15 07:38:02;;;;;;;21.00;16.27;;;;;;;18.24;51.62;100991.41;5019233;28;20037;-70
2021/09/15 07:40:27;;;;;;;20.83;16.00;;;;;;;18.27;51.33;100993.00;5010123;28;20399;-68
2021/09/15 07:42:53;;;;;;;21.77;16.00;;;;;;;18.26;51.70;100994.78;5022687;28;20037;-68
2021/09/15 07:45:18;;;;;;;21.30;16.65;;;;;;;18.24;51.56;100988.75;5017824;28;20498;-69
2021/09/15 07:47:43;;;;;;;21.35;16.40;;;;;;;18.38;51.64;100984.28;5021979;28;20025;-69
2021/09/15 07:50:10;;;;;;;21.33;15.70;;;;;;;18.39;51.59;100994.78;5018739;28;20044;-67
2021/09/15 07:52:36;;;;;;;22.35;16.50;;;;;;;18.40;51.29;100991.16;5019901;28;20048;-68
2021/09/15 07:55:03;;;;;;;21.13;17.30;;;;;;;18.47;51.29;100992.44;5019490;28;20025;-67
2021/09/15 07:57:29;;;;;;;26.38;17.15;;;;;;;18.52;51.33;100988.59;5018988;28;20040;-71
2021/09/15 07:59:54;;;;;;;23.40;17.23;;;;;;;18.32;51.67;100985.59;5019896;28;20034;-68
2021/09/15 08:02:20;;;;;;;26.67;18.35;;;;;;;18.34;51.85;100985.47;5019695;28;20045;-68
2021/09/15 08:04:45;;;;;;;27.55;17.38;;;;;;;18.39;52.02;100989.47;5020963;28;20103;-68
2021/09/15 08:07:11;;;;;;;31.08;18.73;;;;;;;18.65;51.31;100984.09;5017993;28;20046;-68
2021/09/15 08:09:36;;;;;;;22.42;16.77;;;;;;;18.75;51.00;100987.78;5020366;28;20097;-69
2021/09/15 08:12:03;;;;;;;22.08;16.60;;;;;;;18.71;51.13;100988.13;5019188;28;20041;-69
2021/09/15 08:14:29;;;;;;;22.48;17.15;;;;;;;18.79;50.76;100986.59;5019295;28;20026;-69
2021/09/15 08:16:54;;;;;;;23.75;17.10;;;;;;;18.69;50.98;100991.69;5017860;28;20068;-69
2021/09/15 08:19:21;;;;;;;26.92;18.15;;;;;;;18.83;50.94;100980.13;5018377;28;20034;-68
2021/09/15 08:21:47;;;;;;;23.48;16.25;;;;;;;18.98;50.67;100986.09;5021663;28;20498;-69
2021/09/15 08:24:13;;;;;;;27.25;18.25;;;;;;;18.83;50.98;100982.78;5015651;28;20167;-69
2021/09/15 08:26:39;;;;;;;26.30;17.00;;;;;;;18.84;51.01;100976.50;5019569;28;20664;-67
2021/09/15 08:29:05;;;;;;;25.95;17.92;;;;;;;19.08;50.38;100991.59;5017898;28;20090;-68
2021/09/15 08:31:31;;;;;;;22.83;16.92;;;;;;;19.21;50.41;100989.72;5018374;28;20034;-68
2021/09/15 08:33:56;;;;;;;22.80;17.27;;;;;;;19.33;50.64;100985.28;5016984;28;20050;-71
2021/09/15 08:36:22;;;;;;;28.15;19.20;;;;;;;19.12;50.58;100990.38;5015231;28;20072;-69
2021/09/15 08:38:47;;;;;;;25.73;17.67;;;;;;;19.26;50.31;100984.06;5017462;28;20040;-70
2021/09/15 08:41:17;;;;;;;25.92;17.70;;;;;;;19.35;50.38;100980.72;5018757;28;20051;-68
2021/09/15 08:43:43;;;;;;;26.85;16.85;;;;;;;19.49;50.29;100983.16;5033675;28;20034;-68
2021/09/15 08:46:15;;;;;;;26.70;18.73;;;;;;;19.53;50.07;100986.41;5019914;28;20037;-68
2021/09/15 08:48:41;;;;;;;25.25;16.98;;;;;;;19.62;50.09;100992.88;5018512;28;20045;-69
2021/09/15 08:51:13;;;;;;;21.55;17.25;;;;;;;19.57;49.91;100987.03;5016113;28;20551;-67
2021/09/15 08:53:40;;;;;;;28.58;18.67;;;;;;;19.46;50.16;100987.84;5022147;28;20029;-67
2021/09/15 08:56:05;;;;;;;25.55;17.45;;;;;;;19.49;50.90;100990.25;5019733;28;20044;-67
2021/09/15 08:58:31;;;;;;;25.33;18.77;;;;;;;19.50;50.71;100983.97;5019714;28;20399;-67
2021/09/15 09:01:25;;;;;;;37.78;23.30;;;;;;;19.62;50.99;100985.75;5018817;28;20062;-67
2021/09/15 09:03:56;;;;;;;33.92;22.20;;;;;;;19.48;50.81;100986.78;5015949;28;20047;-68
2021/09/15 09:06:24;;;;;;;30.58;19.50;;;;;;;19.67;50.59;100980.91;5020062;28;20052;-69
2021/09/15 09:08:55;;;;;;;31.48;19.98;;;;;;;19.71;50.17;100976.25;5021729;28;20041;-68
2021/09/15 09:11:25;;;;;;;29.75;19.15;;;;;;;19.61;50.17;100976.09;5023228;28;20695;-68
2021/09/15 09:13:54;;;;;;;30.05;18.92;;;;;;;19.67;50.32;100982.75;5022067;28;20046;-69
2021/09/15 09:16:22;;;;;;;28.17;19.38;;;;;;;19.69;50.19;100981.66;5039556;28;20744;-68
2021/09/15 09:18:55;;;;;;;28.02;19.30;;;;;;;19.64;50.14;100982.97;5018173;28;20585;-70
2021/09/15 09:21:29;;;;;;;26.23;18.92;;;;;;;19.71;50.91;100987.69;4999013;28;20048;-69
2021/09/15 09:23:59;;;;;;;28.23;18.77;;;;;;;19.88;50.58;100986.38;5011180;28;20127;-69
2021/09/15 09:26:45;;;;;;;31.47;21.97;;;;;;;19.84;50.43;100984.09;5037715;28;20479;-69
2021/09/15 09:29:13;;;;;;;40.10;22.02;;;;;;;19.93;50.36;100983.38;5009118;28;20053;-68
2021/09/15 09:31:39;;;;;;;30.90;18.92;;;;;;;20.10;50.32;100982.03;5013819;28;20072;-68
2021/09/15 09:34:04;;;;;;;30.08;20.63;;;;;;;20.01;49.90;100974.81;5007536;28;20648;-69
2021/09/15 09:36:30;;;;;;;24.33;18.60;;;;;;;20.09;49.51;100975.88;5037518;28;20056;-69
2021/09/15 09:38:55;;;;;;;26.33;18.58;;;;;;;20.06;49.85;100976.16;5019932;28;20457;-68
2021/09/15 09:41:22;;;;;;;29.35;18.77;;;;;;;20.08;49.78;100974.22;5022073;28;20037;-68
2021/09/15 09:43:55;;;;;;;25.65;18.35;;;;;;;20.09;49.75;100967.94;5021039;28;20449;-69
2021/09/15 09:46:30;;;;;;;26.92;19.25;;;;;;;19.82;50.22;100968.28;5037724;28;20124;-68
2021/09/15 09:48:56;;;;;;;27.20;19.48;;;;;;;19.83;50.12;100958.53;5027744;28;20665;-67
2021/09/15 09:51:28;;;;;;;33.95;20.73;;;;;;;19.85;50.08;100967.22;5027514;28;20041;-68
2021/09/15 09:54:13;;;;;;;32.35;19.65;;;;;;;19.81;49.99;100963.09;5022990;28;20044;-68
2021/09/15 09:56:42;;;;;;;28.92;18.25;;;;;;;19.93;50.24;100967.47;5026985;28;20037;-68
2021/09/15 09:59:11;;;;;;;28.67;18.85;;;;;;;19.83;50.29;100956.72;5021852;28;20038;-69
2021/09/15 10:01:43;;;;;;;28.98;18.48;;;;;;;19.80;50.39;100949.00;5027236;28;20072;-69
2021/09/15 10:04:09;;;;;;;29.95;20.05;;;;;;;19.93;50.17;100951.53;5023739;28;20034;-68
2021/09/15 10:06:37;;;;;;;28.92;19.15;;;;;;;20.04;50.05;100948.88;5017899;28;20049;-69
2021/09/15 10:09:04;;;;;;;30.65;19.25;;;;;;;19.78;50.64;100956.22;5025150;28;20021;-69
2021/09/15 10:11:30;;;;;;;29.55;19.25;;;;;;;19.78;50.52;100947.44;5024263;28;20033;-68
2021/09/15 10:13:55;;;;;;;33.85;19.80;;;;;;;19.60;50.38;100949.72;5022997;28;20044;-69
2021/09/15 10:16:23;;;;;;;29.63;18.67;;;;;;;19.49;51.07;100950.50;5023901;28;20040;-69
2021/09/15 10:19:03;;;;;;;28.08;19.05;;;;;;;19.29;51.71;100944.06;5024830;28;20482;-69
2021/09/15 10:21:31;;;;;;;33.75;19.70;;;;;;;19.44;51.12;100945.56;5022421;28;20112;-69
2021/09/15 10:23:57;;;;;;;28.73;18.75;;;;;;;19.31;51.29;100939.50;5039393;28;20106;-69
2021/09/15 10:26:43;;;;;;;28.55;20.05;;;;;;;19.53;51.33;100938.72;5026527;28;20603;-69
2021/09/15 10:29:18;;;;;;;28.02;18.45;;;;;;;19.47;51.49;100933.88;5040711;22;20048;-69
2021/09/15 10:32:08;;;;;;;32.95;20.55;;;;;;;19.60;50.99;100934.66;5027025;28;20042;-69
2021/09/15 10:34:39;;;;;;;31.15;18.77;;;;;;;19.77;51.04;100937.78;5020679;28;20542;-69
2021/09/15 10:37:11;;;;;;;;;;;;;;;19.83;50.92;100946.09;5020769;28;20037;-71
2021/09/15 10:40:00;;;;;;;28.38;19.77;;;;;;;19.94;50.85;100939.97;5028234;28;20325;-70
2021/09/15 10:42:47;;;;;;;30.60;18.20;;;;;;;19.71;51.33;100947.06;5015733;28;20483;-71
2021/09/15 10:45:20;;;;;;;30.17;19.27;;;;;;;19.76;51.02;100938.75;5024701;28;20037;-70
2021/09/15 10:47:48;;;;;;;25.98;17.83;;;;;;;19.03;52.27;100935.44;5027384;28;20147;-69
2021/09/15 10:50:29;;;;;;;24.83;16.17;;;;;;;19.02;52.42;100936.41;5025155;28;20033;-69
2021/09/15 10:53:07;;;;;;;24.70;15.65;;;;;;;19.62;51.17;100932.72;5024830;28;20037;-70
2021/09/15 10:55:57;;;;;;;24.70;14.98;;;;;;;19.91;50.26;100922.47;5026086;28;20045;-70
2021/09/15 10:58:27;;;;;;;21.80;15.93;;;;;;;19.26;52.15;100923.97;5028251;28;20033;-70
2021/09/15 11:01:04;;;;;;;23.38;16.13;;;;;;;19.77;50.51;100924.53;5028137;28;20029;-70
2021/09/15 11:03:35;;;;;;;20.55;15.10;;;;;;;19.48;51.17;100919.69;5026805;28;20179;-69
2021/09/15 11:06:06;;;;;;;21.00;13.57;;;;;;;19.97;50.52;100912.34;5025114;28;20234;-70
2021/09/15 11:08:35;;;;;;;19.55;14.25;;;;;;;19.97;49.68;100920.28;5026608;28;20037;-70
2021/09/15 11:11:20;;;;;;;19.90;13.43;;;;;;;20.06;49.59;100919.56;5025601;28;20041;-70
2021/09/15 11:13:59;;;;;;;22.77;12.57;;;;;;;19.97;49.96;100912.34;5029305;28;20583;-69
2021/09/15 11:16:37;;;;;;;20.38;12.38;;;;;;;20.01;49.71;100914.63;5025997;28;20494;-70
2021/09/15 11:19:04;;;;;;;17.92;11.43;;;;;;;20.06;49.35;100915.13;5028810;28;20052;-69
2021/09/15 11:21:34;;;;;;;15.65;11.38;;;;;;;20.41;49.12;100910.59;5028867;28;20026;-71
2021/09/15 11:24:09;;;;;;;20.38;12.35;;;;;;;20.64;47.83;100906.06;5028026;28;20470;-69
2021/09/15 11:26:40;;;;;;;17.33;11.50;;;;;;;20.65;47.86;100915.72;5019251;28;20036;-70
2021/09/15 11:29:06;;;;;;;15.80;11.00;;;;;;;20.82;47.76;100912.53;5027961;28;20104;-70
2021/09/15 11:31:35;;;;;;;12.23;9.85;;;;;;;20.88;47.74;100911.19;5025316;28;20175;-70
2021/09/15 11:34:06;;;;;;;16.88;11.57;;;;;;;20.53;48.15;100902.50;5024630;28;20033;-69